Time;durP1;ratioP1;P1;durP2;ratioP2;P2;SDS_P1;SDS_P2;PMS_P1;PMS_P2;Temp;Humidity;BMP_temperature;BMP_pressure;BME280_temperature;BME280_humidity;BME280_pressure;Samples;Min_cycle;Max_cycle;Signal;HPM_P1;HPM_P2
2021/05/13 00:01:05;;;;;;;23.27;14.23;;;;;;;;;;5041494;28;20273;-65
2021/05/13 00:03:32;;;;;;;24.48;13.88;;;;;;;;;;5053601;28;20051;-64
2021/05/13 00:05:58;;;;;;;25.48;14.02;;;;;;;;;;5040496;28;20612;-65
2021/05/13 00:08:24;;;;;;;26.30;14.50;;;;;;;;;;5043929;28;20037;-65
2021/05/13 00:10:51;;;;;;;29.50;14.00;;;;;;;;;;5041532;28;20033;-65
2021/05/13 00:13:17;;;;;;;23.67;15.02;;;;;;;;;;5057895;28;20071;-64
2021/05/13 00:15:44;;;;;;;25.75;14.60;;;;;;;;;;5051011;28;20226;-65
2021/05/13 00:18:10;;;;;;;24.95;13.98;;;;;;;;;;5044624;28;20564;-64
2021/05/13 00:20:38;;;;;;;24.23;14.40;;;;;;;;;;5044020;28;20151;-65
2021/05/13 00:23:04;;;;;;;29.08;15.68;;;;;;;;;;5044953;28;20075;-65
2021/05/13 00:25:30;;;;;;;27.15;15.73;;;;;;;;;;5049045;28;20024;-64
2021/05/13 00:27:56;;;;;;;29.38;16.10;;;;;;;;;;5054271;28;20020;-64
2021/05/13 00:30:22;;;;;;;29.02;16.50;;;;;;;;;;5050978;28;20422;-65
2021/05/13 00:32:48;;;;;;;29.85;17.17;;;;;;;;;;5059677;28;20127;-64
2021/05/13 00:35:16;;;;;;;35.05;18.50;;;;;;;;;;5047537;28;20591;-64
2021/05/13 00:37:42;;;;;;;33.45;18.65;;;;;;;;;;5046583;28;20087;-64
2021/05/13 00:40:09;;;;;;;36.63;18.85;;;;;;;;;;5053711;28;20078;-64
2021/05/13 00:42:35;;;;;;;32.00;16.70;;;;;;;;;;5063549;28;20021;-64
2021/05/13 00:45:01;;;;;;;35.70;18.33;;;;;;;;;;5049742;28;20033;-64
2021/05/13 00:47:30;;;;;;;30.58;18.15;;;;;;;;;;5047812;28;20025;-64
2021/05/13 00:49:56;;;;;;;31.73;17.55;;;;;;;;;;5056043;28;20020;-64
2021/05/13 00:52:23;;;;;;;33.97;18.25;;;;;;;;;;5045724;28;20067;-64
2021/05/13 00:54:49;;;;;;;35.53;18.00;;;;;;;;;;5052805;28;20051;-64
2021/05/13 00:57:16;;;;;;;35.20;19.58;;;;;;;;;;5047144;28;20032;-64
2021/05/13 00:59:49;;;;;;;38.85;19.65;;;;;;;;;;5051960;28;20453;-63
2021/05/13 01:02:15;;;;;;;35.80;19.33;;;;;;;;;;5048909;28;20013;-64
2021/05/13 01:04:41;;;;;;;34.67;17.85;;;;;;;;;;5059158;28;20159;-64
2021/05/13 01:07:07;;;;;;;33.35;17.55;;;;;;;;;;5045804;28;20029;-64
2021/05/13 01:09:33;;;;;;;33.55;18.80;;;;;;;;;;5050244;28;20028;-63
2021/05/13 01:12:07;;;;;;;37.70;19.73;;;;;;;;;;5057601;28;20052;-64
2021/05/13 01:17:38;;;;;;;35.55;18.75;;;;;;;;;;5050377;28;20390;-64
2021/05/13 01:19:56;;;;;;;33.63;18.17;;;;;;;;;;5044520;28;20068;-64
2021/05/13 01:22:24;;;;;;;33.83;18.48;;;;;;;;;;5050801;28;20492;-64
2021/05/13 01:24:50;;;;;;;34.25;18.45;;;;;;;;;;5020857;28;20017;-64
2021/05/13 01:27:18;;;;;;;37.45;18.73;;;;;;;;;;5051658;28;20028;-65
2021/05/13 01:29:46;;;;;;;33.58;17.90;;;;;;;;;;5047833;28;20044;-64
2021/05/13 01:32:13;;;;;;;41.30;20.10;;;;;;;;;;5063151;28;20499;-64
2021/05/13 01:34:39;;;;;;;37.95;19.30;;;;;;;;;;5046077;28;20428;-64
2021/05/13 01:37:05;;;;;;;40.22;21.48;;;;;;;;;;5044374;28;20418;-64
2021/05/13 01:39:31;;;;;;;44.00;21.85;;;;;;;;;;5053119;28;20491;-63
2021/05/13 01:41:57;;;;;;;41.80;21.20;;;;;;;;;;5047840;28;20473;-64
2021/05/13 01:44:23;;;;;;;38.78;19.60;;;;;;;;;;5051913;28;20032;-64
2021/05/13 01:46:50;;;;;;;44.15;19.98;;;;;;;;;;5051698;28;20032;-64
2021/05/13 01:49:17;;;;;;;38.38;18.92;;;;;;;;;;5044398;28;20032;-64
2021/05/13 01:51:44;;;;;;;37.75;19.65;;;;;;;;;;5060042;28;20454;-64
2021/05/13 01:54:10;;;;;;;35.15;18.42;;;;;;;;;;5047559;28;20045;-64
2021/05/13 01:56:36;;;;;;;39.15;19.40;;;;;;;;;;5053297;28;20035;-64
2021/05/13 01:59:02;;;;;;;33.80;18.65;;;;;;;;;;5050935;28;20180;-64
2021/05/13 02:01:29;;;;;;;34.38;17.63;;;;;;;;;;5052237;28;20013;-64
2021/05/13 02:03:55;;;;;;;35.28;17.65;;;;;;;;;;5047101;28;20028;-63
2021/05/13 02:06:22;;;;;;;36.33;18.67;;;;;;;;;;5048181;28;20032;-63
2021/05/13 02:08:48;;;;;;;35.50;18.67;;;;;;;;;;5046768;28;20021;-64
2021/05/13 02:11:14;;;;;;;33.83;18.23;;;;;;;;;;5048637;28;20775;-64
2021/05/13 02:13:41;;;;;;;42.63;18.05;;;;;;;;;;5057641;28;20233;-63
2021/05/13 02:16:07;;;;;;;39.22;19.77;;;;;;;;;;5053106;28;20040;-63
2021/05/13 02:18:33;;;;;;;41.17;19.20;;;;;;;;;;5053271;28;20029;-64
2021/05/13 02:20:59;;;;;;;38.05;19.75;;;;;;;;;;5053994;28;20027;-64
2021/05/13 02:23:25;;;;;;;46.17;20.20;;;;;;;;;;5048280;28;20496;-64
2021/05/13 02:25:51;;;;;;;41.10;20.40;;;;;;;;;;5052296;28;20507;-64
2021/05/13 02:28:18;;;;;;;35.90;18.80;;;;;;;;;;5053196;28;20587;-64
2021/05/13 02:30:44;;;;;;;38.33;19.25;;;;;;;;;;5049530;28;20025;-64
2021/05/13 02:33:11;;;;;;;37.33;19.63;;;;;;;;;;5053598;28;20117;-63
2021/05/13 02:35:37;;;;;;;39.80;19.60;;;;;;;;;;5045054;28;20487;-63
2021/05/13 02:38:03;;;;;;;42.95;20.38;;;;;;;;;;5046702;28;20164;-64
2021/05/13 02:40:29;;;;;;;39.38;19.73;;;;;;;;;;5048231;28;20029;-63
2021/05/13 02:42:56;;;;;;;40.40;19.63;;;;;;;;;;5052217;28;20025;-63
2021/05/13 02:45:24;;;;;;;42.05;20.77;;;;;;;;;;5029172;28;20368;-63
2021/05/13 02:47:51;;;;;;;43.42;20.52;;;;;;;;;;5047045;28;20533;-65
2021/05/13 02:50:18;;;;;;;39.20;20.42;;;;;;;;;;5046607;28;20035;-63
2021/05/13 02:52:44;;;;;;;41.25;20.80;;;;;;;;;;5033952;28;20432;-63
2021/05/13 02:55:11;;;;;;;40.30;19.88;;;;;;;;;;5046175;28;20461;-64
2021/05/13 02:57:38;;;;;;;42.13;21.27;;;;;;;;;;5048385;28;20378;-63
2021/05/13 03:00:30;;;;;;;42.78;21.55;;;;;;;;;;5047200;28;20053;-66
2021/05/13 03:02:56;;;;;;;42.78;20.75;;;;;;;;;;5055921;28;20025;-65
2021/05/13 03:05:26;;;;;;;44.22;20.75;;;;;;;;;;5040621;28;20029;-65
2021/05/13 03:07:54;;;;;;;52.58;23.80;;;;;;;;;;5051831;28;20040;-65
2021/05/13 03:11:05;;;;;;;50.80;23.10;;;;;;;;;;5048211;28;20033;-65
2021/05/13 03:13:09;;;;;;;49.92;21.85;;;;;;;;;;5045924;28;20044;-63
2021/05/13 03:15:35;;;;;;;50.92;23.20;;;;;;;;;;5050045;28;20075;-63
2021/05/13 03:18:01;;;;;;;57.17;24.73;;;;;;;;;;5056951;28;20033;-63
2021/05/13 03:20:37;;;;;;;58.10;24.17;;;;;;;;;;5048759;28;20063;-63
2021/05/13 03:23:05;;;;;;;54.40;24.15;;;;;;;;;;5048470;28;20037;-66
2021/05/13 03:25:35;;;;;;;53.95;24.88;;;;;;;;;;5048903;28;20333;-63
2021/05/13 03:28:08;;;;;;;51.42;24.05;;;;;;;;;;5049287;28;20444;-64
2021/05/13 03:30:35;;;;;;;56.15;24.95;;;;;;;;;;5047878;28;20024;-63
2021/05/13 03:33:01;;;;;;;56.05;23.95;;;;;;;;;;5048515;28;20112;-64
2021/05/13 03:35:28;;;;;;;48.67;23.13;;;;;;;;;;5051601;28;20133;-65
2021/05/13 03:37:54;;;;;;;58.40;24.60;;;;;;;;;;5049739;28;20025;-65
2021/05/13 03:40:20;;;;;;;55.92;23.65;;;;;;;;;;5040978;28;20025;-65
2021/05/13 03:42:46;;;;;;;56.92;24.13;;;;;;;;;;5053870;28;20324;-65
2021/05/13 03:45:12;;;;;;;53.13;23.45;;;;;;;;;;5040415;28;20021;-65
2021/05/13 03:47:38;;;;;;;53.70;23.10;;;;;;;;;;5048956;28;20547;-65
2021/05/13 03:50:05;;;;;;;59.33;25.13;;;;;;;;;;5046846;28;20044;-63
2021/05/13 03:52:31;;;;;;;52.15;23.98;;;;;;;;;;5046137;28;20447;-64
2021/05/13 03:54:57;;;;;;;54.47;23.77;;;;;;;;;;5043504;28;20045;-64
2021/05/13 03:57:23;;;;;;;59.95;24.40;;;;;;;;;;5043861;28;20029;-65
2021/05/13 03:59:51;;;;;;;56.35;23.98;;;;;;;;;;5041820;28;20029;-65
2021/05/13 04:04:55;;;;;;;58.45;24.50;;;;;;;;;;5042472;28;20037;-65
2021/05/13 04:07:22;;;;;;;61.67;25.23;;;;;;;;;;5048577;28;20020;-65
2021/05/13 04:09:48;;;;;;;60.80;25.17;;;;;;;;;;5044201;28;20031;-65
2021/05/13 04:12:14;;;;;;;60.50;25.45;;;;;;;;;;5044217;28;20097;-65
2021/05/13 04:14:40;;;;;;;65.70;25.85;;;;;;;;;;5045496;28;20544;-66
2021/05/13 04:17:08;;;;;;;56.17;23.70;;;;;;;;;;5046274;28;20029;-67
2021/05/13 04:19:34;;;;;;;61.63;24.40;;;;;;;;;;5045229;28;20125;-66
2021/05/13 04:22:00;;;;;;;66.60;25.23;;;;;;;;;;5041425;28;20363;-65
2021/05/13 04:24:26;;;;;;;59.65;25.27;;;;;;;;;;5043369;28;20476;-66
2021/05/13 04:26:53;;;;;;;66.13;25.23;;;;;;;;;;5045350;28;20354;-68
2021/05/13 04:29:19;;;;;;;54.75;23.98;;;;;;;;;;5047511;28;20028;-66
2021/05/13 04:31:45;;;;;;;57.65;24.08;;;;;;;;;;5044551;28;20024;-65
2021/05/13 04:34:11;;;;;;;59.45;26.88;;;;;;;;;;5048873;28;20091;-65
2021/05/13 04:36:37;;;;;;;60.92;26.25;;;;;;;;;;5047451;28;20037;-66
2021/05/13 04:39:04;;;;;;;58.67;25.48;;;;;;;;;;5042791;28;20461;-65
2021/05/13 04:41:31;;;;;;;57.00;24.98;;;;;;;;;;5047363;28;20017;-65
2021/05/13 04:43:58;;;;;;;59.97;26.20;;;;;;;;;;5047975;28;20481;-64
2021/05/13 04:46:27;;;;;;;57.80;25.90;;;;;;;;;;5044886;28;20104;-64
2021/05/13 04:49:02;;;;;;;56.05;26.25;;;;;;;;;;5046290;28;20025;-65
2021/05/13 04:51:29;;;;;;;60.67;25.70;;;;;;;;;;5048568;28;20041;-65
2021/05/13 04:53:55;;;;;;;55.97;25.65;;;;;;;;;;5049220;28;21323;-65
2021/05/13 04:56:22;;;;;;;59.90;27.10;;;;;;;;;;5043902;28;20692;-65
2021/05/13 04:58:48;;;;;;;57.92;25.05;;;;;;;;;;5046020;28;20028;-65
2021/05/13 05:01:15;;;;;;;61.92;26.38;;;;;;;;;;5042438;28;20023;-65
2021/05/13 05:03:41;;;;;;;58.78;25.73;;;;;;;;;;5049732;28;20028;-65
2021/05/13 05:06:07;;;;;;;56.25;26.85;;;;;;;;;;5045661;28;20480;-66
2021/05/13 05:08:33;;;;;;;63.97;28.45;;;;;;;;;;5045940;28;20017;-66
2021/05/13 05:10:59;;;;;;;62.38;28.13;;;;;;;;;;5040967;28;20025;-65
2021/05/13 05:13:25;;;;;;;60.22;27.20;;;;;;;;;;5043995;28;20464;-65
2021/05/13 05:15:51;;;;;;;65.10;27.38;;;;;;;;;;5047586;28;20618;-66
2021/05/13 05:18:21;;;;;;;68.50;29.42;;;;;;;;;;5049393;28;20031;-65
2021/05/13 05:20:48;;;;;;;58.85;27.02;;;;;;;;;;5049363;28;20025;-64
2021/05/13 05:23:15;;;;;;;62.00;27.48;;;;;;;;;;5046449;28;20072;-63
2021/05/13 05:25:41;;;;;;;59.60;26.65;;;;;;;;;;5046001;28;20040;-65
2021/05/13 05:28:08;;;;;;;52.22;25.77;;;;;;;;;;5047806;28;20029;-65
2021/05/13 05:30:34;;;;;;;54.03;26.33;;;;;;;;;;5047434;28;20100;-65
2021/05/13 05:33:04;;;;;;;55.47;26.73;;;;;;;;;;5050645;28;20104;-63
2021/05/13 05:35:30;;;;;;;51.83;24.75;;;;;;;;;;5050607;28;20027;-63
2021/05/13 05:37:57;;;;;;;57.53;27.30;;;;;;;;;;5055393;28;20385;-62
2021/05/13 05:40:23;;;;;;;55.83;26.00;;;;;;;;;;5047646;28;20040;-62
2021/05/13 05:42:50;;;;;;;56.55;26.35;;;;;;;;;;5047134;28;20028;-63
2021/05/13 05:45:16;;;;;;;50.15;25.35;;;;;;;;;;5055786;28;20033;-62
2021/05/13 05:47:44;;;;;;;49.17;25.35;;;;;;;;;;5050364;28;20044;-64
2021/05/13 05:50:11;;;;;;;44.60;23.80;;;;;;;;;;5050693;28;20021;-63
2021/05/13 05:52:37;;;;;;;53.88;25.67;;;;;;;;;;5052123;28;20021;-63
2021/05/13 05:55:04;;;;;;;50.00;24.63;;;;;;;;;;5043396;28;20037;-63
2021/05/13 05:57:31;;;;;;;45.70;23.95;;;;;;;;;;5048372;28;20028;-63
2021/05/13 05:59:58;;;;;;;45.38;24.85;;;;;;;;;;5043432;28;20022;-63
2021/05/13 06:02:24;;;;;;;40.90;21.63;;;;;;;;;;5041409;28;20040;-62
2021/05/13 06:04:51;;;;;;;40.85;21.85;;;;;;;;;;5047208;28;20018;-62
2021/05/13 06:07:17;;;;;;;37.88;20.45;;;;;;;;;;5048772;28;20029;-62
2021/05/13 06:09:43;;;;;;;38.58;20.65;;;;;;;;;;5049316;28;20062;-63
2021/05/13 06:12:09;;;;;;;36.13;20.15;;;;;;;;;;5052478;28;20029;-63
2021/05/13 06:14:35;;;;;;;34.45;19.75;;;;;;;;;;5058008;28;20036;-63
2021/05/13 06:17:02;;;;;;;33.25;18.42;;;;;;;;;;5053243;28;20033;-63
2021/05/13 06:19:28;;;;;;;36.80;20.30;;;;;;;;;;5053000;28;20017;-63
2021/05/13 06:21:54;;;;;;;33.88;18.17;;;;;;;;;;5049469;28;20025;-63
2021/05/13 06:24:20;;;;;;;32.20;16.98;;;;;;;;;;5058686;28;20031;-62
2021/05/13 06:26:56;;;;;;;32.53;18.05;;;;;;;;;;5032860;28;20033;-63
2021/05/13 06:29:22;;;;;;;32.47;17.85;;;;;;;;;;5049975;28;20024;-64
2021/05/13 06:31:48;;;;;;;28.60;16.80;;;;;;;;;;5050472;28;20614;-63
2021/05/13 06:34:14;;;;;;;33.95;18.00;;;;;;;;;;5054326;28;20033;-62
2021/05/13 06:36:41;;;;;;;30.85;18.02;;;;;;;;;;5046381;28;20042;-63
2021/05/13 06:39:07;;;;;;;34.75;17.98;;;;;;;;;;5053221;28;20033;-63
2021/05/13 06:41:33;;;;;;;30.83;18.08;;;;;;;;;;5043157;28;20052;-64
2021/05/13 06:44:00;;;;;;;32.08;17.67;;;;;;;;;;5049003;28;20535;-63
2021/05/13 06:46:26;;;;;;;28.83;16.48;;;;;;;;;;5046958;28;20529;-64
2021/05/13 06:48:52;;;;;;;31.63;16.98;;;;;;;;;;5049245;28;20068;-63
2021/05/13 06:51:19;;;;;;;32.28;17.58;;;;;;;;;;5047937;28;20628;-64
2021/05/13 06:53:45;;;;;;;27.13;16.52;;;;;;;;;;5029731;28;20049;-63
2021/05/13 06:56:12;;;;;;;28.45;16.20;;;;;;;;;;5047937;28;20044;-63
2021/05/13 06:58:38;;;;;;;27.88;14.80;;;;;;;;;;5046009;28;20025;-63
2021/05/13 07:01:05;;;;;;;27.85;15.82;;;;;;;;;;5044547;28;20040;-63
2021/05/13 07:03:31;;;;;;;25.27;14.50;;;;;;;;;;5045999;28;20021;-64
2021/05/13 07:05:57;;;;;;;25.58;13.45;;;;;;;;;;5047889;28;20033;-63
2021/05/13 07:08:23;;;;;;;24.38;13.82;;;;;;;;;;5043402;28;20040;-63
2021/05/13 07:10:49;;;;;;;25.02;14.27;;;;;;;;;;5042292;28;20032;-64
2021/05/13 07:13:15;;;;;;;22.02;12.27;;;;;;;;;;5044879;28;20024;-63
2021/05/13 07:15:42;;;;;;;23.88;13.15;;;;;;;;;;5046412;28;20385;-63
2021/05/13 07:18:15;;;;;;;21.73;13.40;;;;;;;;;;5047919;28;20025;-65
2021/05/13 07:20:41;;;;;;;24.67;13.50;;;;;;;;;;5049288;28;20020;-63
2021/05/13 07:23:07;;;;;;;23.17;13.40;;;;;;;;;;5049000;28;20506;-64
2021/05/13 07:25:33;;;;;;;23.40;12.63;;;;;;;;;;5049023;28;20415;-64
2021/05/13 07:28:00;;;;;;;23.23;12.93;;;;;;;;;;5043929;28;20029;-63
2021/05/13 07:30:26;;;;;;;20.83;12.48;;;;;;;;;;5049639;28;20155;-63
2021/05/13 07:32:52;;;;;;;21.23;11.65;;;;;;;;;;5051120;28;20528;-63
2021/05/13 07:35:18;;;;;;;17.65;10.43;;;;;;;;;;5051288;28;20036;-63
2021/05/13 07:37:45;;;;;;;17.98;10.77;;;;;;;;;;5048182;28;20021;-66
2021/05/13 07:40:11;;;;;;;15.32;9.55;;;;;;;;;;5051615;28;20029;-64
2021/05/13 07:42:37;;;;;;;14.88;8.20;;;;;;;;;;5046374;28;20028;-64
2021/05/13 07:45:04;;;;;;;15.88;9.30;;;;;;;;;;5044341;28;20056;-64
2021/05/13 07:47:33;;;;;;;17.45;8.82;;;;;;;;;;5043226;28;20032;-64
2021/05/13 07:49:59;;;;;;;17.35;9.05;;;;;;;;;;5028153;28;20384;-64
2021/05/13 07:52:25;;;;;;;18.05;10.35;;;;;;;;;;5048488;28;20028;-64
2021/05/13 07:54:51;;;;;;;18.73;9.75;;;;;;;;;;5042126;28;20044;-64
2021/05/13 07:57:18;;;;;;;15.88;9.45;;;;;;;;;;5048068;28;20128;-64
2021/05/13 07:59:44;;;;;;;17.58;10.82;;;;;;;;;;5042053;28;20720;-63
2021/05/13 08:02:11;;;;;;;17.02;10.63;;;;;;;;;;5048336;28;20068;-63
2021/05/13 08:04:37;;;;;;;16.88;9.35;;;;;;;;;;5046876;28;20365;-63
2021/05/13 08:07:03;;;;;;;18.70;9.15;;;;;;;;;;5046640;28;20044;-64
2021/05/13 08:09:29;;;;;;;16.10;8.18;;;;;;;;;;5048303;28;20104;-64
2021/05/13 08:11:55;;;;;;;17.05;9.07;;;;;;;;;;5046210;28;20378;-66
2021/05/13 08:14:21;;;;;;;16.13;9.52;;;;;;;;;;5027325;28;20025;-66
2021/05/13 08:16:47;;;;;;;19.42;9.95;;;;;;;;;;5046744;28;20407;-66
2021/05/13 08:19:13;;;;;;;19.25;11.60;;;;;;;;;;5047109;28;20016;-66
2021/05/13 08:21:39;;;;;;;15.93;9.25;;;;;;;;;;5048216;28;20374;-66
2021/05/13 08:24:05;;;;;;;14.48;9.10;;;;;;;;;;5047438;28;20427;-67
2021/05/13 08:26:31;;;;;;;15.43;9.98;;;;;;;;;;5050181;28;20040;-66
2021/05/13 08:28:57;;;;;;;17.88;10.35;;;;;;;;;;5046620;28;20028;-66
2021/05/13 08:31:23;;;;;;;16.52;10.45;;;;;;;;;;5050336;28;20028;-66
2021/05/13 08:33:50;;;;;;;15.55;9.73;;;;;;;;;;5048359;28;20048;-66
2021/05/13 08:36:16;;;;;;;15.65;9.98;;;;;;;;;;5047455;28;20044;-66
2021/05/13 08:38:42;;;;;;;20.42;11.90;;;;;;;;;;5048749;28;20021;-66
2021/05/13 08:41:10;;;;;;;17.30;11.35;;;;;;;;;;5052532;28;20469;-66
2021/05/13 08:43:36;;;;;;;16.17;11.48;;;;;;;;;;5045622;28;20064;-66
2021/05/13 08:46:02;;;;;;;16.15;9.40;;;;;;;;;;5046946;28;20060;-66
2021/05/13 08:48:28;;;;;;;15.55;10.25;;;;;;;;;;5049322;28;20021;-66
2021/05/13 08:50:55;;;;;;;16.40;9.40;;;;;;;;;;5053659;28;20025;-66
2021/05/13 08:53:21;;;;;;;13.55;9.27;;;;;;;;;;5042411;28;20048;-66
2021/05/13 08:55:48;;;;;;;14.45;9.70;;;;;;;;;;5049535;28;20518;-66
2021/05/13 08:58:14;;;;;;;16.17;9.00;;;;;;;;;;5053255;28;20032;-66
2021/05/13 09:00:50;;;;;;;18.40;10.57;;;;;;;;;;5042248;28;20041;-67
2021/05/13 09:03:30;;;;;;;17.35;11.00;;;;;;;;;;5053982;28;20012;-65
2021/05/13 09:05:56;;;;;;;16.13;9.52;;;;;;;;;;5056675;28;20087;-70
2021/05/13 09:08:22;;;;;;;17.95;11.07;;;;;;;;;;5050627;28;20029;-72
2021/05/13 09:10:51;;;;;;;28.27;11.73;;;;;;;;;;5044745;28;20534;-72
2021/05/13 09:13:29;;;;;;;15.35;10.07;;;;;;;;;;5047861;28;20516;-72
2021/05/13 09:15:55;;;;;;;16.92;10.70;;;;;;;;;;5050214;28;20041;-71
2021/05/13 09:18:33;;;;;;;16.52;8.57;;;;;;;;;;5055379;28;20021;-72
2021/05/13 09:21:06;;;;;;;14.63;8.93;;;;;;;;;;5053289;28;20082;-72
2021/05/13 09:23:32;;;;;;;11.02;5.10;;;;;;;;;;5052840;28;20247;-72
2021/05/13 09:26:11;;;;;;;10.13;5.18;;;;;;;;;;5032789;28;20147;-72
2021/05/13 09:28:37;;;;;;;15.50;8.60;;;;;;;;;;5050442;28;20013;-73
2021/05/13 09:31:04;;;;;;;11.00;6.90;;;;;;;;;;5049559;28;20550;-71
2021/05/13 09:33:31;;;;;;;12.93;6.65;;;;;;;;;;5052024;28;20492;-72
2021/05/13 09:35:58;;;;;;;13.02;7.90;;;;;;;;;;5050036;28;20113;-73
2021/05/13 09:38:33;;;;;;;18.13;9.57;;;;;;;;;;5053180;28;20032;-72
2021/05/13 09:41:01;;;;;;;17.70;11.13;;;;;;;;;;5047659;28;20512;-73
2021/05/13 09:43:34;;;;;;;16.23;10.73;;;;;;;;;;5057145;28;20329;-73
2021/05/13 09:46:01;;;;;;;17.00;10.35;;;;;;;;;;5048477;28;20071;-71
2021/05/13 09:48:40;;;;;;;18.48;10.90;;;;;;;;;;5060237;28;20460;-71
2021/05/13 09:51:23;;;;;;;33.97;12.40;;;;;;;;;;5048979;28;20100;-71
2021/05/13 09:53:50;;;;;;;15.85;8.80;;;;;;;;;;5040077;28;20566;-71
2021/05/13 09:56:23;;;;;;;20.15;10.15;;;;;;;;;;5053236;28;20044;-72
2021/05/13 09:58:49;;;;;;;17.33;8.95;;;;;;;;;;5052499;28;20481;-72
2021/05/13 10:01:15;;;;;;;15.15;8.57;;;;;;;;;;5045055;28;20037;-71
2021/05/13 10:03:43;;;;;;;16.85;8.27;;;;;;;;;;5049361;28;20135;-72
2021/05/13 10:06:12;;;;;;;15.55;7.88;;;;;;;;;;5053465;28;20037;-72
2021/05/13 10:08:39;;;;;;;13.53;7.77;;;;;;;;;;5045147;28;20024;-72
2021/05/13 10:11:06;;;;;;;14.15;7.82;;;;;;;;;;5045733;28;20277;-73
2021/05/13 10:13:33;;;;;;;15.05;7.78;;;;;;;;;;5061907;28;20063;-72
2021/05/13 10:16:00;;;;;;;13.60;7.50;;;;;;;;;;5051663;28;20730;-72
2021/05/13 10:18:28;;;;;;;11.25;6.07;;;;;;;;;;5057423;28;20032;-73
2021/05/13 10:21:01;;;;;;;13.23;7.00;;;;;;;;;;5050402;28;20017;-72
2021/05/13 10:23:27;;;;;;;11.52;7.13;;;;;;;;;;5053308;28;20042;-72
2021/05/13 10:25:53;;;;;;;11.93;7.07;;;;;;;;;;5048183;28;20036;-71
2021/05/13 10:28:26;;;;;;;13.00;6.70;;;;;;;;;;5048113;28;20017;-72
2021/05/13 10:31:06;;;;;;;13.23;6.45;;;;;;;;;;5044307;28;20022;-71
2021/05/13 10:33:50;;;;;;;9.18;5.10;;;;;;;;;;5057636;28;20246;-71
2021/05/13 10:36:19;;;;;;;12.30;4.15;;;;;;;;;;5048146;28;20435;-72
2021/05/13 10:38:46;;;;;;;10.10;5.43;;;;;;;;;;5049355;28;20020;-72
2021/05/13 10:41:31;;;;;;;11.10;4.90;;;;;;;;;;5050768;28;20139;-72
2021/05/13 10:43:58;;;;;;;8.50;3.90;;;;;;;;;;5049200;28;20024;-73
2021/05/13 10:46:30;;;;;;;9.65;4.18;;;;;;;;;;5047024;28;20052;-72
2021/05/13 10:49:15;;;;;;;8.45;3.90;;;;;;;;;;5049108;28;20373;-74
2021/05/13 10:51:42;;;;;;;7.50;3.00;;;;;;;;;;5054606;28;20028;-73
2021/05/13 10:54:08;;;;;;;5.47;2.17;;;;;;;;;;5042366;28;20045;-73
2021/05/13 10:56:35;;;;;;;8.27;3.47;;;;;;;;;;5048585;28;20392;-73
2021/05/13 10:59:08;;;;;;;9.30;3.70;;;;;;;;;;5022082;28;20581;-72
2021/05/13 11:01:50;;;;;;;9.10;3.70;;;;;;;;;;5044633;28;20087;-73
2021/05/13 11:04:22;;;;;;;8.35;4.75;;;;;;;;;;5048218;28;20025;-73
2021/05/13 11:06:56;;;;;;;6.97;3.10;;;;;;;;;;5048116;28;20028;-72
2021/05/13 11:09:44;;;;;;;7.50;3.80;;;;;;;;;;5045546;28;20036;-73
2021/05/13 11:12:12;;;;;;;10.10;3.70;;;;;;;;;;5045826;28;20024;-72
2021/05/13 11:14:58;;;;;;;7.53;3.17;;;;;;;;;;5046667;28;20052;-71
2021/05/13 11:20:18;;;;;;;11.00;6.53;;;;;;;;;;5045852;28;20017;-73
2021/05/13 11:22:54;;;;;;;11.57;4.93;;;;;;;;;;5042400;28;20021;-72
2021/05/13 11:25:20;;;;;;;10.63;4.55;;;;;;;;;;5043360;28;20082;-71
2021/05/13 11:27:47;;;;;;;11.70;6.13;;;;;;;;;;5043983;28;20033;-72
2021/05/13 11:30:13;;;;;;;12.25;6.30;;;;;;;;;;5045951;28;20029;-71
2021/05/13 11:32:40;;;;;;;12.82;6.43;;;;;;;;;;5044662;28;20033;-71
2021/05/13 11:35:06;;;;;;;11.77;6.15;;;;;;;;;;5038755;28;20021;-71
2021/05/13 11:37:40;;;;;;;15.50;6.80;;;;;;;;;;5044139;28;20436;-71
2021/05/13 11:40:39;;;;;;;11.07;5.85;;;;;;;;;;5046361;28;20192;-72
2021/05/13 11:43:23;;;;;;;11.15;5.80;;;;;;;;;;5009235;28;20045;-71
2021/05/13 11:45:50;;;;;;;8.90;5.18;;;;;;;;;;5039611;28;20376;-71
2021/05/13 11:48:35;;;;;;;9.85;5.40;;;;;;;;;;5043232;28;20057;-71
2021/05/13 11:51:02;;;;;;;11.50;5.22;;;;;;;;;;5044029;28;20057;-71
2021/05/13 11:53:29;;;;;;;11.75;5.80;;;;;;;;;;5052754;28;20064;-71
2021/05/13 11:55:55;;;;;;;10.18;5.63;;;;;;;;;;5046214;28;20104;-72
2021/05/13 11:58:42;;;;;;;9.90;5.30;;;;;;;;;;5048036;28;20181;-71
2021/05/13 12:01:29;;;;;;;9.35;5.30;;;;;;;;;;5025173;28;20696;-71
2021/05/13 12:04:02;;;;;;;10.07;5.43;;;;;;;;;;5047432;28;20036;-72
2021/05/13 12:06:29;;;;;;;11.30;5.43;;;;;;;;;;5052043;28;20021;-71
2021/05/13 12:08:55;;;;;;;9.35;4.75;;;;;;;;;;5047201;28;20025;-71
2021/05/13 12:11:23;;;;;;;10.25;4.88;;;;;;;;;;5048579;28;20453;-72
2021/05/13 12:13:50;;;;;;;10.90;4.95;;;;;;;;;;5048159;28;20566;-71
2021/05/13 12:16:17;;;;;;;10.60;5.15;;;;;;;;;;5048407;28;20041;-72
2021/05/13 12:18:44;;;;;;;10.55;5.53;;;;;;;;;;5054284;28;20275;-71
2021/05/13 12:21:11;;;;;;;11.65;5.80;;;;;;;;;;5065581;28;20504;-71
2021/05/13 12:23:39;;;;;;;11.98;6.32;;;;;;;;;;5058639;28;20028;-71
2021/05/13 12:26:05;;;;;;;10.60;5.35;;;;;;;;;;5048009;28;20051;-71
2021/05/13 12:28:31;;;;;;;13.38;6.05;;;;;;;;;;5045388;28;20040;-72
2021/05/13 12:30:58;;;;;;;11.23;5.65;;;;;;;;;;5049226;28;20523;-71
2021/05/13 12:33:30;;;;;;;11.98;5.60;;;;;;;;;;5045965;28;20029;-73
2021/05/13 12:35:57;;;;;;;11.10;5.60;;;;;;;;;;5057751;28;20389;-71
2021/05/13 12:38:24;;;;;;;12.63;5.97;;;;;;;;;;5063947;28;20082;-71
2021/05/13 12:41:05;;;;;;;10.25;4.80;;;;;;;;;;5060095;28;20472;-72
2021/05/13 12:43:31;;;;;;;11.23;5.18;;;;;;;;;;5031127;28;20020;-71
2021/05/13 12:45:57;;;;;;;10.93;5.13;;;;;;;;;;5051276;28;20103;-71
2021/05/13 12:48:27;;;;;;;11.70;5.70;;;;;;;;;;5048725;28;20120;-72
2021/05/13 12:50:58;;;;;;;12.50;5.90;;;;;;;;;;5061732;28;20153;-71
2021/05/13 12:53:24;;;;;;;11.90;6.10;;;;;;;;;;5058591;28;20488;-74
2021/05/13 12:55:50;;;;;;;11.25;6.07;;;;;;;;;;5034381;28;20052;-71
2021/05/13 12:58:24;;;;;;;11.20;5.72;;;;;;;;;;5054755;28;20492;-71
2021/05/13 13:00:58;;;;;;;12.75;5.65;;;;;;;;;;5048880;28;20067;-70
2021/05/13 13:03:30;;;;;;;11.18;5.60;;;;;;;;;;5047166;28;20082;-70
2021/05/13 13:06:09;;;;;;;13.98;5.90;;;;;;;;;;5047947;28;20098;-71
2021/05/13 13:08:36;;;;;;;10.50;5.68;;;;;;;;;;5046890;28;20036;-70
2021/05/13 13:11:02;;;;;;;10.82;6.40;;;;;;;;;;5043286;28;20485;-71
2021/05/13 13:13:36;;;;;;;12.95;8.05;;;;;;;;;;5047627;28;20025;-70
2021/05/13 13:16:14;;;;;;;13.60;8.00;;;;;;;;;;5050958;28;20536;-70
2021/05/13 13:18:40;;;;;;;12.27;7.75;;;;;;;;;;5050717;28;20132;-70
2021/05/13 13:21:14;;;;;;;13.10;7.45;;;;;;;;;;5054829;28;20108;-71
2021/05/13 13:23:40;;;;;;;12.77;7.35;;;;;;;;;;5037548;28;20025;-71
2021/05/13 13:26:07;;;;;;;13.57;7.65;;;;;;;;;;5053684;28;20025;-71
2021/05/13 13:28:37;;;;;;;12.27;6.63;;;;;;;;;;5050187;28;20104;-73
2021/05/13 13:31:12;;;;;;;15.90;8.60;;;;;;;;;;5055225;28;20040;-71
2021/05/13 13:33:38;;;;;;;15.05;8.68;;;;;;;;;;5045849;28;20409;-71
2021/05/13 13:36:04;;;;;;;16.13;9.98;;;;;;;;;;5062259;28;20411;-72
2021/05/13 13:38:31;;;;;;;15.20;11.23;;;;;;;;;;5064407;28;20279;-71
2021/05/13 13:40:59;;;;;;;18.25;10.88;;;;;;;;;;5058430;28;20033;-71
2021/05/13 13:43:26;;;;;;;19.50;10.52;;;;;;;;;;5057517;28;20025;-71
2021/05/13 13:45:53;;;;;;;15.82;9.80;;;;;;;;;;5057461;28;20291;-71
2021/05/13 13:48:19;;;;;;;14.98;9.60;;;;;;;;;;5045302;28;20040;-70
2021/05/13 13:50:50;;;;;;;17.65;9.88;;;;;;;;;;5046786;28;20096;-71
2021/05/13 13:53:17;;;;;;;15.70;10.20;;;;;;;;;;5049136;28;20102;-70
2021/05/13 13:55:43;;;;;;;14.52;9.13;;;;;;;;;;5047809;28;20029;-71
2021/05/13 13:58:09;;;;;;;14.02;8.82;;;;;;;;;;5048189;28;20485;-71
2021/05/13 14:00:36;;;;;;;14.57;8.90;;;;;;;;;;5049566;28;20048;-71
2021/05/13 14:03:02;;;;;;;14.25;9.02;;;;;;;;;;5036555;28;20183;-71
2021/05/13 14:05:28;;;;;;;14.98;9.57;;;;;;;;;;5059576;28;20540;-71
2021/05/13 14:07:55;;;;;;;14.00;8.55;;;;;;;;;;5049239;28;20078;-71
2021/05/13 14:10:22;;;;;;;15.07;9.70;;;;;;;;;;5059750;28;20472;-71
2021/05/13 14:12:49;;;;;;;15.13;8.88;;;;;;;;;;5055760;28;20056;-71
2021/05/13 14:15:15;;;;;;;14.10;7.18;;;;;;;;;;5056508;28;20028;-71
2021/05/13 14:17:42;;;;;;;15.85;9.93;;;;;;;;;;5057728;28;20627;-71
2021/05/13 14:20:11;;;;;;;13.38;8.63;;;;;;;;;;5050652;28;20043;-71
2021/05/13 14:22:37;;;;;;;15.75;8.55;;;;;;;;;;5054400;28;20388;-71
2021/05/13 14:25:04;;;;;;;16.63;7.95;;;;;;;;;;5033649;28;20504;-72
2021/05/13 14:27:30;;;;;;;13.82;7.88;;;;;;;;;;5058423;28;20029;-71
2021/05/13 14:29:56;;;;;;;14.38;8.55;;;;;;;;;;5046058;28;20067;-72
2021/05/13 14:32:22;;;;;;;13.25;7.55;;;;;;;;;;5048119;28;20046;-71
2021/05/13 14:34:49;;;;;;;13.98;6.38;;;;;;;;;;5051006;28;20078;-72
2021/05/13 14:37:16;;;;;;;14.15;6.55;;;;;;;;;;5035723;28;20045;-72